sensor_id;sensor_type;location;lat;lon;timestamp;temperature;humidity
29777;DHT22;16677;52.224;7.484;2022-07-23T00:00:20;16.20;99.90
29777;DHT22;16677;52.224;7.484;2022-07-23T00:02:47;16.10;99.90
29777;DHT22;16677;52.224;7.484;2022-07-23T00:05:15;16.10;99.90
29777;DHT22;16677;52.224;7.484;2022-07-23T00:07:43;16.10;99.90
29777;DHT22;16677;52.224;7.484;2022-07-23T00:10:10;16.00;99.90
29777;DHT22;16677;52.224;7.484;2022-07-23T00:12:38;15.90;99.90
29777;DHT22;16677;52.224;7.484;2022-07-23T00:15:17;16.00;99.90
29777;DHT22;16677;52.224;7.484;2022-07-23T00:17:44;16.20;99.90
29777;DHT22;16677;52.224;7.484;2022-07-23T00:20:11;16.10;99.90
29777;DHT22;16677;52.224;7.484;2022-07-23T00:22:46;16.20;99.90
29777;DHT22;16677;52.224;7.484;2022-07-23T00:25:14;16.30;99.90
29777;DHT22;16677;52.224;7.484;2022-07-23T00:27:59;16.30;99.90
29777;DHT22;16677;52.224;7.484;2022-07-23T00:30:26;16.30;99.90
29777;DHT22;16677;52.224;7.484;2022-07-23T00:33:00;16.20;99.90
29777;DHT22;16677;52.224;7.484;2022-07-23T00:35:30;16.10;99.90
29777;DHT22;16677;52.224;7.484;2022-07-23T00:37:57;16.10;99.90
29777;DHT22;16677;52.224;7.484;2022-07-23T00:40:26;16.00;99.90
29777;DHT22;16677;52.224;7.484;2022-07-23T00:42:53;15.80;99.90
29777;DHT22;16677;52.224;7.484;2022-07-23T00:45:20;15.70;99.90
29777;DHT22;16677;52.224;7.484;2022-07-23T00:47:48;15.60;99.90
29777;DHT22;16677;52.224;7.484;2022-07-23T00:50:15;15.70;99.90
29777;DHT22;16677;52.224;7.484;2022-07-23T00:52:42;15.90;99.90
29777;DHT22;16677;52.224;7.484;2022-07-23T00:55:10;15.90;99.90
29777;DHT22;16677;52.224;7.484;2022-07-23T00:57:39;16.00;99.90
29777;DHT22;16677;52.224;7.484;2022-07-23T01:00:08;15.90;99.90
29777;DHT22;16677;52.224;7.484;2022-07-23T01:02:36;16.10;99.90
29777;DHT22;16677;52.224;7.484;2022-07-23T01:05:03;16.10;99.90
29777;DHT22;16677;52.224;7.484;2022-07-23T01:07:30;16.10;99.90
29777;DHT22;16677;52.224;7.484;2022-07-23T01:09:57;16.10;99.90
29777;DHT22;16677;52.224;7.484;2022-07-23T01:12:24;16.10;99.90
29777;DHT22;16677;52.224;7.484;2022-07-23T01:14:54;16.10;99.90
29777;DHT22;16677;52.224;7.484;2022-07-23T01:17:21;16.10;99.90
29777;DHT22;16677;52.224;7.484;2022-07-23T01:19:48;16.20;99.90
29777;DHT22;16677;52.224;7.484;2022-07-23T01:22:15;16.10;99.90
29777;DHT22;16677;52.224;7.484;2022-07-23T01:24:44;16.10;99.90
29777;DHT22;16677;52.224;7.484;2022-07-23T01:27:11;16.10;99.90
29777;DHT22;16677;52.224;7.484;2022-07-23T01:29:39;16.10;99.90
29777;DHT22;16677;52.224;7.484;2022-07-23T01:32:06;16.00;99.90
29777;DHT22;16677;52.224;7.484;2022-07-23T01:34:33;15.90;99.90
29777;DHT22;16677;52.224;7.484;2022-07-23T01:37:00;15.70;99.90
29777;DHT22;16677;52.224;7.484;2022-07-23T01:39:27;15.60;99.90
29777;DHT22;16677;52.224;7.484;2022-07-23T01:41:54;15.60;99.90
29777;DHT22;16677;52.224;7.484;2022-07-23T01:44:21;15.50;99.90
29777;DHT22;16677;52.224;7.484;2022-07-23T01:46:47;15.30;99.90
29777;DHT22;16677;52.224;7.484;2022-07-23T01:49:14;15.20;99.90
29777;DHT22;16677;52.224;7.484;2022-07-23T01:51:41;15.10;99.90
29777;DHT22;16677;52.224;7.484;2022-07-23T01:54:31;15.00;99.90
29777;DHT22;16677;52.224;7.484;2022-07-23T01:56:58;14.80;99.90
29777;DHT22;16677;52.224;7.484;2022-07-23T01:59:27;14.70;99.90
29777;DHT22;16677;52.224;7.484;2022-07-23T02:01:54;14.70;99.90
29777;DHT22;16677;52.224;7.484;2022-07-23T02:04:22;14.60;99.90
29777;DHT22;16677;52.224;7.484;2022-07-23T02:06:49;14.60;99.90
29777;DHT22;16677;52.224;7.484;2022-07-23T02:09:17;14.70;99.90
29777;DHT22;16677;52.224;7.484;2022-07-23T02:11:45;14.80;99.90
29777;DHT22;16677;52.224;7.484;2022-07-23T02:14:12;14.70;99.90
29777;DHT22;16677;52.224;7.484;2022-07-23T02:16:39;14.60;99.90
29777;DHT22;16677;52.224;7.484;2022-07-23T02:19:06;14.60;99.90
29777;DHT22;16677;52.224;7.484;2022-07-23T02:21:33;14.70;99.90
29777;DHT22;16677;52.224;7.484;2022-07-23T02:23:59;14.70;99.90
29777;DHT22;16677;52.224;7.484;2022-07-23T02:26:26;14.70;99.90
29777;DHT22;16677;52.224;7.484;2022-07-23T02:28:53;14.70;99.90
29777;DHT22;16677;52.224;7.484;2022-07-23T02:31:20;14.90;99.90
29777;DHT22;16677;52.224;7.484;2022-07-23T02:33:47;15.00;73.90
29777;DHT22;16677;52.224;7.484;2022-07-23T02:36:14;15.00;1.00
29777;DHT22;16677;52.224;7.484;2022-07-23T02:38:41;15.10;1.00
29777;DHT22;16677;52.224;7.484;2022-07-23T02:41:08;15.20;1.00
29777;DHT22;16677;52.224;7.484;2022-07-23T02:43:36;15.20;5.30
29777;DHT22;16677;52.224;7.484;2022-07-23T02:46:02;15.30;1.00
29777;DHT22;16677;52.224;7.484;2022-07-23T02:48:30;15.20;99.90
29777;DHT22;16677;52.224;7.484;2022-07-23T02:50:57;15.30;99.90
29777;DHT22;16677;52.224;7.484;2022-07-23T02:53:24;15.20;1.00
29777;DHT22;16677;52.224;7.484;2022-07-23T02:55:50;15.10;1.00
29777;DHT22;16677;52.224;7.484;2022-07-23T02:58:18;15.10;99.90
29777;DHT22;16677;52.224;7.484;2022-07-23T03:00:45;15.00;1.00
29777;DHT22;16677;52.224;7.484;2022-07-23T03:03:12;14.90;1.00
29777;DHT22;16677;52.224;7.484;2022-07-23T03:05:39;14.90;1.00
29777;DHT22;16677;52.224;7.484;2022-07-23T03:08:06;14.90;1.00
29777;DHT22;16677;52.224;7.484;2022-07-23T03:10:33;14.80;1.00
29777;DHT22;16677;52.224;7.484;2022-07-23T03:13:00;14.90;1.00
29777;DHT22;16677;52.224;7.484;2022-07-23T03:15:26;14.90;1.00
29777;DHT22;16677;52.224;7.484;2022-07-23T03:17:53;14.90;1.00
29777;DHT22;16677;52.224;7.484;2022-07-23T03:20:20;14.90;1.00
29777;DHT22;16677;52.224;7.484;2022-07-23T03:22:47;14.90;1.00
29777;DHT22;16677;52.224;7.484;2022-07-23T03:25:14;14.90;1.00
29777;DHT22;16677;52.224;7.484;2022-07-23T03:27:41;15.00;1.00
29777;DHT22;16677;52.224;7.484;2022-07-23T03:30:08;15.00;12.10
29777;DHT22;16677;52.224;7.484;2022-07-23T03:32:35;15.00;72.20
29777;DHT22;16677;52.224;7.484;2022-07-23T03:35:02;15.00;83.30
29777;DHT22;16677;52.224;7.484;2022-07-23T03:37:32;14.70;34.10
29777;DHT22;16677;52.224;7.484;2022-07-23T03:39:59;14.60;99.90
29777;DHT22;16677;52.224;7.484;2022-07-23T03:42:26;14.40;99.90
29777;DHT22;16677;52.224;7.484;2022-07-23T03:44:53;14.50;99.90
29777;DHT22;16677;52.224;7.484;2022-07-23T03:47:20;14.40;99.90
29777;DHT22;16677;52.224;7.484;2022-07-23T03:49:49;14.30;99.90
29777;DHT22;16677;52.224;7.484;2022-07-23T03:52:16;14.30;99.90
29777;DHT22;16677;52.224;7.484;2022-07-23T03:54:42;14.20;99.90
29777;DHT22;16677;52.224;7.484;2022-07-23T03:57:09;14.10;99.90
29777;DHT22;16677;52.224;7.484;2022-07-23T03:59:36;14.00;99.90
29777;DHT22;16677;52.224;7.484;2022-07-23T04:02:03;14.00;99.90
29777;DHT22;16677;52.224;7.484;2022-07-23T04:04:30;14.00;99.90
29777;DHT22;16677;52.224;7.484;2022-07-23T04:06:57;13.90;99.90
29777;DHT22;16677;52.224;7.484;2022-07-23T04:09:24;13.90;99.90
29777;DHT22;16677;52.224;7.484;2022-07-23T04:11:51;14.10;99.90
29777;DHT22;16677;52.224;7.484;2022-07-23T04:14:18;14.50;99.90
29777;DHT22;16677;52.224;7.484;2022-07-23T04:16:45;14.70;99.90
29777;DHT22;16677;52.224;7.484;2022-07-23T04:19:12;14.90;99.90
29777;DHT22;16677;52.224;7.484;2022-07-23T04:21:39;15.20;99.90
29777;DHT22;16677;52.224;7.484;2022-07-23T04:24:06;15.10;99.90
29777;DHT22;16677;52.224;7.484;2022-07-23T04:26:33;15.10;99.90
29777;DHT22;16677;52.224;7.484;2022-07-23T04:28:59;15.00;99.90
29777;DHT22;16677;52.224;7.484;2022-07-23T04:31:27;15.20;99.90
29777;DHT22;16677;52.224;7.484;2022-07-23T04:34:00;15.30;99.90
29777;DHT22;16677;52.224;7.484;2022-07-23T04:36:27;15.10;99.90
29777;DHT22;16677;52.224;7.484;2022-07-23T04:38:54;15.20;99.90
29777;DHT22;16677;52.224;7.484;2022-07-23T04:41:21;15.10;99.90
29777;DHT22;16677;52.224;7.484;2022-07-23T04:43:48;15.20;99.90
29777;DHT22;16677;52.224;7.484;2022-07-23T04:46:15;15.50;99.90
29777;DHT22;16677;52.224;7.484;2022-07-23T04:48:42;15.40;99.90
29777;DHT22;16677;52.224;7.484;2022-07-23T04:51:10;15.30;99.90
29777;DHT22;16677;52.224;7.484;2022-07-23T04:53:37;15.20;99.90
29777;DHT22;16677;52.224;7.484;2022-07-23T04:56:05;15.10;99.90
29777;DHT22;16677;52.224;7.484;2022-07-23T04:58:32;15.20;99.90
29777;DHT22;16677;52.224;7.484;2022-07-23T05:00:59;15.20;99.90
29777;DHT22;16677;52.224;7.484;2022-07-23T05:03:25;15.20;99.90
29777;DHT22;16677;52.224;7.484;2022-07-23T05:05:52;15.50;99.90
29777;DHT22;16677;52.224;7.484;2022-07-23T05:08:19;15.60;99.90
29777;DHT22;16677;52.224;7.484;2022-07-23T05:10:46;16.00;99.90
29777;DHT22;16677;52.224;7.484;2022-07-23T05:13:17;16.00;99.90
29777;DHT22;16677;52.224;7.484;2022-07-23T05:15:45;16.40;99.90
29777;DHT22;16677;52.224;7.484;2022-07-23T05:18:12;16.60;99.90
29777;DHT22;16677;52.224;7.484;2022-07-23T05:20:39;17.30;99.90
29777;DHT22;16677;52.224;7.484;2022-07-23T05:23:07;18.40;45.60
29777;DHT22;16677;52.224;7.484;2022-07-23T05:25:34;18.10;54.40
29777;DHT22;16677;52.224;7.484;2022-07-23T05:28:01;18.00;56.90
29777;DHT22;16677;52.224;7.484;2022-07-23T05:30:28;18.30;65.50
29777;DHT22;16677;52.224;7.484;2022-07-23T05:32:55;17.60;71.40
29777;DHT22;16677;52.224;7.484;2022-07-23T05:35:22;17.40;77.80
29777;DHT22;16677;52.224;7.484;2022-07-23T05:37:49;16.30;99.90
29777;DHT22;16677;52.224;7.484;2022-07-23T05:40:16;16.30;99.90
29777;DHT22;16677;52.224;7.484;2022-07-23T05:42:43;16.40;99.90
29777;DHT22;16677;52.224;7.484;2022-07-23T05:45:10;16.30;99.90
29777;DHT22;16677;52.224;7.484;2022-07-23T05:47:45;16.30;99.90
29777;DHT22;16677;52.224;7.484;2022-07-23T05:50:13;16.40;99.90
29777;DHT22;16677;52.224;7.484;2022-07-23T05:52:41;16.20;99.90
29777;DHT22;16677;52.224;7.484;2022-07-23T05:55:09;16.50;99.90
29777;DHT22;16677;52.224;7.484;2022-07-23T05:57:36;16.20;99.90
29777;DHT22;16677;52.224;7.484;2022-07-23T06:00:05;16.40;99.90
29777;DHT22;16677;52.224;7.484;2022-07-23T06:02:32;16.80;99.90
29777;DHT22;16677;52.224;7.484;2022-07-23T06:04:59;17.30;81.60
29777;DHT22;16677;52.224;7.484;2022-07-23T06:07:26;16.90;94.30
29777;DHT22;16677;52.224;7.484;2022-07-23T06:09:53;16.70;99.20
29777;DHT22;16677;52.224;7.484;2022-07-23T06:12:19;16.40;99.90
29777;DHT22;16677;52.224;7.484;2022-07-23T06:14:46;16.50;99.50
29777;DHT22;16677;52.224;7.484;2022-07-23T06:17:16;16.70;99.90
29777;DHT22;16677;52.224;7.484;2022-07-23T06:19:43;16.90;91.00
29777;DHT22;16677;52.224;7.484;2022-07-23T06:22:10;17.40;78.40
29777;DHT22;16677;52.224;7.484;2022-07-23T06:24:37;17.50;52.80
29777;DHT22;16677;52.224;7.484;2022-07-23T06:27:04;17.70;46.00
29777;DHT22;16677;52.224;7.484;2022-07-23T06:29:31;18.40;20.80
29777;DHT22;16677;52.224;7.484;2022-07-23T06:31:58;18.20;25.00
29777;DHT22;16677;52.224;7.484;2022-07-23T06:34:25;17.70;42.60
29777;DHT22;16677;52.224;7.484;2022-07-23T06:36:52;17.90;42.00
29777;DHT22;16677;52.224;7.484;2022-07-23T06:39:19;18.50;25.20
29777;DHT22;16677;52.224;7.484;2022-07-23T06:41:46;18.30;20.70
29777;DHT22;16677;52.224;7.484;2022-07-23T06:44:17;18.60;27.00
29777;DHT22;16677;52.224;7.484;2022-07-23T06:46:44;18.10;31.30
29777;DHT22;16677;52.224;7.484;2022-07-23T06:49:11;17.70;49.90
29777;DHT22;16677;52.224;7.484;2022-07-23T06:51:38;18.00;35.70
29777;DHT22;16677;52.224;7.484;2022-07-23T06:54:05;18.40;26.10
29777;DHT22;16677;52.224;7.484;2022-07-23T06:56:32;18.60;21.30
29777;DHT22;16677;52.224;7.484;2022-07-23T06:58:59;18.30;20.90
29777;DHT22;16677;52.224;7.484;2022-07-23T07:01:26;18.20;29.80
29777;DHT22;16677;52.224;7.484;2022-07-23T07:03:54;18.90;12.00
29777;DHT22;16677;52.224;7.484;2022-07-23T07:06:20;18.80;20.80
29777;DHT22;16677;52.224;7.484;2022-07-23T07:08:48;18.20;23.00
29777;DHT22;16677;52.224;7.484;2022-07-23T07:11:15;18.30;28.80
29777;DHT22;16677;52.224;7.484;2022-07-23T07:13:42;17.80;32.60
29777;DHT22;16677;52.224;7.484;2022-07-23T07:16:09;18.10;19.90
29777;DHT22;16677;52.224;7.484;2022-07-23T07:18:36;18.10;23.50
29777;DHT22;16677;52.224;7.484;2022-07-23T07:21:03;18.10;26.40
29777;DHT22;16677;52.224;7.484;2022-07-23T07:23:30;17.60;46.80
29777;DHT22;16677;52.224;7.484;2022-07-23T07:25:56;17.30;41.20
29777;DHT22;16677;52.224;7.484;2022-07-23T07:28:23;17.40;46.00
29777;DHT22;16677;52.224;7.484;2022-07-23T07:30:51;17.40;43.00
29777;DHT22;16677;52.224;7.484;2022-07-23T07:33:18;17.50;56.20
29777;DHT22;16677;52.224;7.484;2022-07-23T07:35:45;17.80;43.40
29777;DHT22;16677;52.224;7.484;2022-07-23T07:38:11;18.10;22.90
29777;DHT22;16677;52.224;7.484;2022-07-23T07:40:39;17.90;17.10
29777;DHT22;16677;52.224;7.484;2022-07-23T07:43:05;18.00;12.80
29777;DHT22;16677;52.224;7.484;2022-07-23T07:45:32;18.10;15.90
29777;DHT22;16677;52.224;7.484;2022-07-23T07:47:59;18.70;1.00
29777;DHT22;16677;52.224;7.484;2022-07-23T07:50:26;17.80;5.60
29777;DHT22;16677;52.224;7.484;2022-07-23T07:52:53;17.90;1.00
29777;DHT22;16677;52.224;7.484;2022-07-23T07:55:20;17.70;3.80
29777;DHT22;16677;52.224;7.484;2022-07-23T07:57:47;17.80;1.30
29777;DHT22;16677;52.224;7.484;2022-07-23T08:00:16;17.70;2.60
29777;DHT22;16677;52.224;7.484;2022-07-23T08:02:49;17.70;1.00
29777;DHT22;16677;52.224;7.484;2022-07-23T08:05:27;17.90;1.00
29777;DHT22;16677;52.224;7.484;2022-07-23T08:07:58;18.40;1.00
29777;DHT22;16677;52.224;7.484;2022-07-23T08:10:26;18.20;1.00
29777;DHT22;16677;52.224;7.484;2022-07-23T08:12:55;18.00;1.00
29777;DHT22;16677;52.224;7.484;2022-07-23T08:15:25;18.70;1.00
29777;DHT22;16677;52.224;7.484;2022-07-23T08:17:52;18.90;1.00
29777;DHT22;16677;52.224;7.484;2022-07-23T08:20:21;19.20;1.00
29777;DHT22;16677;52.224;7.484;2022-07-23T08:22:57;18.50;1.00
29777;DHT22;16677;52.224;7.484;2022-07-23T08:25:30;18.40;1.00
29777;DHT22;16677;52.224;7.484;2022-07-23T08:27:59;18.50;1.00
29777;DHT22;16677;52.224;7.484;2022-07-23T08:30:27;18.60;1.00
29777;DHT22;16677;52.224;7.484;2022-07-23T08:33:02;18.50;1.00
29777;DHT22;16677;52.224;7.484;2022-07-23T08:35:31;19.40;1.00
29777;DHT22;16677;52.224;7.484;2022-07-23T08:38:00;18.50;1.00
29777;DHT22;16677;52.224;7.484;2022-07-23T08:40:30;18.60;1.00
29777;DHT22;16677;52.224;7.484;2022-07-23T08:42:58;18.50;1.00
29777;DHT22;16677;52.224;7.484;2022-07-23T08:45:26;18.80;1.00
29777;DHT22;16677;52.224;7.484;2022-07-23T08:47:57;18.60;1.00
29777;DHT22;16677;52.224;7.484;2022-07-23T08:50:31;18.90;1.00
29777;DHT22;16677;52.224;7.484;2022-07-23T08:52:59;19.00;1.00
29777;DHT22;16677;52.224;7.484;2022-07-23T08:55:27;19.50;1.00
29777;DHT22;16677;52.224;7.484;2022-07-23T08:57:54;19.10;1.00
29777;DHT22;16677;52.224;7.484;2022-07-23T09:00:21;19.30;1.00
29777;DHT22;16677;52.224;7.484;2022-07-23T09:02:49;19.30;1.00
29777;DHT22;16677;52.224;7.484;2022-07-23T09:05:19;18.70;1.00
29777;DHT22;16677;52.224;7.484;2022-07-23T09:08:19;18.60;1.00
29777;DHT22;16677;52.224;7.484;2022-07-23T09:10:58;19.10;1.00
29777;DHT22;16677;52.224;7.484;2022-07-23T09:13:53;19.10;1.00
29777;DHT22;16677;52.224;7.484;2022-07-23T09:16:29;19.30;1.00
29777;DHT22;16677;52.224;7.484;2022-07-23T09:18:59;19.60;1.00
29777;DHT22;16677;52.224;7.484;2022-07-23T09:21:36;19.80;1.00
29777;DHT22;16677;52.224;7.484;2022-07-23T09:24:13;20.00;1.00
29777;DHT22;16677;52.224;7.484;2022-07-23T09:26:48;19.40;1.00
29777;DHT22;16677;52.224;7.484;2022-07-23T09:29:21;19.20;1.00
29777;DHT22;16677;52.224;7.484;2022-07-23T09:31:58;19.00;1.00
29777;DHT22;16677;52.224;7.484;2022-07-23T09:34:34;19.40;1.00
29777;DHT22;16677;52.224;7.484;2022-07-23T09:37:19;19.20;1.00
29777;DHT22;16677;52.224;7.484;2022-07-23T09:39:47;19.20;1.00
29777;DHT22;16677;52.224;7.484;2022-07-23T09:42:22;19.40;1.00
29777;DHT22;16677;52.224;7.484;2022-07-23T09:44:51;19.40;1.00
29777;DHT22;16677;52.224;7.484;2022-07-23T09:47:19;19.30;1.00
29777;DHT22;16677;52.224;7.484;2022-07-23T09:50:08;20.00;1.00
29777;DHT22;16677;52.224;7.484;2022-07-23T09:52:46;19.70;1.00
29777;DHT22;16677;52.224;7.484;2022-07-23T09:55:16;20.10;1.00
29777;DHT22;16677;52.224;7.484;2022-07-23T09:57:46;20.30;1.00
29777;DHT22;16677;52.224;7.484;2022-07-23T10:00:16;20.40;1.00
29777;DHT22;16677;52.224;7.484;2022-07-23T10:02:46;20.70;1.00
29777;DHT22;16677;52.224;7.484;2022-07-23T10:05:13;20.40;1.00
29777;DHT22;16677;52.224;7.484;2022-07-23T10:07:41;20.20;1.00
29777;DHT22;16677;52.224;7.484;2022-07-23T10:10:10;20.10;1.00
29777;DHT22;16677;52.224;7.484;2022-07-23T10:12:38;20.40;1.00
29777;DHT22;16677;52.224;7.484;2022-07-23T10:15:05;20.30;1.00
29777;DHT22;16677;52.224;7.484;2022-07-23T10:17:34;20.20;1.00
29777;DHT22;16677;52.224;7.484;2022-07-23T10:20:02;20.20;1.00
29777;DHT22;16677;52.224;7.484;2022-07-23T10:22:40;20.20;1.00
29777;DHT22;16677;52.224;7.484;2022-07-23T10:25:41;20.30;1.00
29777;DHT22;16677;52.224;7.484;2022-07-23T10:33:55;20.90;1.00
29777;DHT22;16677;52.224;7.484;2022-07-23T10:39:05;20.70;1.00
29777;DHT22;16677;52.224;7.484;2022-07-23T10:41:40;20.60;1.00
29777;DHT22;16677;52.224;7.484;2022-07-23T10:44:13;20.70;1.00
29777;DHT22;16677;52.224;7.484;2022-07-23T10:49:32;20.40;1.00
29777;DHT22;16677;52.224;7.484;2022-07-23T10:52:19;20.60;1.00
29777;DHT22;16677;52.224;7.484;2022-07-23T10:54:48;21.40;1.00
29777;DHT22;16677;52.224;7.484;2022-07-23T11:00:16;21.30;1.00
29777;DHT22;16677;52.224;7.484;2022-07-23T11:02:48;21.40;1.00
29777;DHT22;16677;52.224;7.484;2022-07-23T11:05:20;21.10;1.00
29777;DHT22;16677;52.224;7.484;2022-07-23T11:10:34;20.90;1.00
29777;DHT22;16677;52.224;7.484;2022-07-23T11:23:57;21.60;1.00
29777;DHT22;16677;52.224;7.484;2022-07-23T11:26:43;21.30;1.00
29777;DHT22;16677;52.224;7.484;2022-07-23T11:34:35;21.90;1.00
29777;DHT22;16677;52.224;7.484;2022-07-23T11:37:04;21.60;1.00
29777;DHT22;16677;52.224;7.484;2022-07-23T11:39:32;21.60;1.00
29777;DHT22;16677;52.224;7.484;2022-07-23T11:42:00;21.60;1.00
29777;DHT22;16677;52.224;7.484;2022-07-23T11:44:38;21.20;1.00
29777;DHT22;16677;52.224;7.484;2022-07-23T11:47:08;22.00;1.00
29777;DHT22;16677;52.224;7.484;2022-07-23T11:49:36;21.70;1.00
29777;DHT22;16677;52.224;7.484;2022-07-23T11:57:35;21.50;1.00
29777;DHT22;16677;52.224;7.484;2022-07-23T12:02:42;22.00;1.00
29777;DHT22;16677;52.224;7.484;2022-07-23T12:07:46;22.40;1.00
29777;DHT22;16677;52.224;7.484;2022-07-23T12:10:17;22.00;1.00
29777;DHT22;16677;52.224;7.484;2022-07-23T12:12:45;21.60;1.00
29777;DHT22;16677;52.224;7.484;2022-07-23T12:15:13;21.90;1.00
29777;DHT22;16677;52.224;7.484;2022-07-23T12:17:43;22.10;1.00
29777;DHT22;16677;52.224;7.484;2022-07-23T12:20:20;22.70;1.00
29777;DHT22;16677;52.224;7.484;2022-07-23T12:22:49;22.60;1.00
29777;DHT22;16677;52.224;7.484;2022-07-23T12:25:19;22.20;1.00
29777;DHT22;16677;52.224;7.484;2022-07-23T12:27:46;21.90;1.00
29777;DHT22;16677;52.224;7.484;2022-07-23T12:30:30;21.60;1.00
29777;DHT22;16677;52.224;7.484;2022-07-23T12:33:01;21.90;1.00
29777;DHT22;16677;52.224;7.484;2022-07-23T12:35:34;22.20;1.00
29777;DHT22;16677;52.224;7.484;2022-07-23T12:38:04;22.40;1.00
29777;DHT22;16677;52.224;7.484;2022-07-23T12:40:36;21.90;1.00
29777;DHT22;16677;52.224;7.484;2022-07-23T12:43:08;21.90;1.00
29777;DHT22;16677;52.224;7.484;2022-07-23T12:48:31;22.10;1.00
29777;DHT22;16677;52.224;7.484;2022-07-23T12:51:07;22.40;1.00
29777;DHT22;16677;52.224;7.484;2022-07-23T12:53:41;22.10;1.00
29777;DHT22;16677;52.224;7.484;2022-07-23T12:56:33;22.50;1.00
29777;DHT22;16677;52.224;7.484;2022-07-23T13:01:35;23.20;1.00
29777;DHT22;16677;52.224;7.484;2022-07-23T13:04:15;23.00;1.00
29777;DHT22;16677;52.224;7.484;2022-07-23T13:09:19;22.40;1.00
29777;DHT22;16677;52.224;7.484;2022-07-23T13:11:47;22.60;1.00
29777;DHT22;16677;52.224;7.484;2022-07-23T13:14:16;22.90;1.00
29777;DHT22;16677;52.224;7.484;2022-07-23T13:16:48;22.70;1.00
29777;DHT22;16677;52.224;7.484;2022-07-23T13:19:15;22.90;1.00
29777;DHT22;16677;52.224;7.484;2022-07-23T13:21:45;23.00;1.00
29777;DHT22;16677;52.224;7.484;2022-07-23T13:24:12;23.30;1.00
29777;DHT22;16677;52.224;7.484;2022-07-23T13:26:40;22.60;1.00
29777;DHT22;16677;52.224;7.484;2022-07-23T13:29:07;22.00;1.00
29777;DHT22;16677;52.224;7.484;2022-07-23T13:31:37;22.80;1.00
29777;DHT22;16677;52.224;7.484;2022-07-23T13:34:05;23.00;1.00
29777;DHT22;16677;52.224;7.484;2022-07-23T13:36:34;23.10;1.00
29777;DHT22;16677;52.224;7.484;2022-07-23T13:39:01;23.30;1.00
29777;DHT22;16677;52.224;7.484;2022-07-23T13:41:29;23.00;1.00
29777;DHT22;16677;52.224;7.484;2022-07-23T13:43:56;22.70;1.00
29777;DHT22;16677;52.224;7.484;2022-07-23T13:46:24;22.50;1.00
29777;DHT22;16677;52.224;7.484;2022-07-23T13:48:51;22.60;1.00
29777;DHT22;16677;52.224;7.484;2022-07-23T13:51:19;22.50;1.00
29777;DHT22;16677;52.224;7.484;2022-07-23T13:53:50;23.20;1.00
29777;DHT22;16677;52.224;7.484;2022-07-23T13:56:17;23.40;1.00
29777;DHT22;16677;52.224;7.484;2022-07-23T13:58:43;22.80;1.00
29777;DHT22;16677;52.224;7.484;2022-07-23T14:01:11;22.80;1.00
29777;DHT22;16677;52.224;7.484;2022-07-23T14:03:38;22.90;1.00
29777;DHT22;16677;52.224;7.484;2022-07-23T14:06:06;23.30;1.00
29777;DHT22;16677;52.224;7.484;2022-07-23T14:08:41;23.20;1.00
29777;DHT22;16677;52.224;7.484;2022-07-23T14:11:10;23.10;1.00
29777;DHT22;16677;52.224;7.484;2022-07-23T14:13:37;23.00;1.00
29777;DHT22;16677;52.224;7.484;2022-07-23T14:16:04;22.70;1.00
29777;DHT22;16677;52.224;7.484;2022-07-23T14:18:31;23.00;1.00
29777;DHT22;16677;52.224;7.484;2022-07-23T14:20:59;23.80;1.00
29777;DHT22;16677;52.224;7.484;2022-07-23T14:23:27;23.90;1.00
29777;DHT22;16677;52.224;7.484;2022-07-23T14:25:56;23.00;1.00
29777;DHT22;16677;52.224;7.484;2022-07-23T14:28:23;23.00;1.00
29777;DHT22;16677;52.224;7.484;2022-07-23T14:30:51;23.20;1.00
29777;DHT22;16677;52.224;7.484;2022-07-23T14:33:18;23.30;1.00
29777;DHT22;16677;52.224;7.484;2022-07-23T14:35:45;23.60;1.00
29777;DHT22;16677;52.224;7.484;2022-07-23T14:38:12;23.30;1.00
29777;DHT22;16677;52.224;7.484;2022-07-23T14:40:40;23.00;1.00
29777;DHT22;16677;52.224;7.484;2022-07-23T14:43:08;22.80;1.00
29777;DHT22;16677;52.224;7.484;2022-07-23T14:45:37;23.00;1.00
29777;DHT22;16677;52.224;7.484;2022-07-23T14:48:05;22.70;1.00
29777;DHT22;16677;52.224;7.484;2022-07-23T14:50:32;23.00;1.00
29777;DHT22;16677;52.224;7.484;2022-07-23T14:52:59;23.30;1.00
29777;DHT22;16677;52.224;7.484;2022-07-23T14:55:26;23.00;1.00
29777;DHT22;16677;52.224;7.484;2022-07-23T14:57:53;23.50;1.00
29777;DHT22;16677;52.224;7.484;2022-07-23T15:00:20;23.80;1.00
29777;DHT22;16677;52.224;7.484;2022-07-23T15:02:50;23.00;1.00
29777;DHT22;16677;52.224;7.484;2022-07-23T15:05:37;23.00;1.00
29777;DHT22;16677;52.224;7.484;2022-07-23T15:08:04;23.80;1.00
29777;DHT22;16677;52.224;7.484;2022-07-23T15:10:35;23.60;1.00
29777;DHT22;16677;52.224;7.484;2022-07-23T15:13:03;24.10;1.00
29777;DHT22;16677;52.224;7.484;2022-07-23T15:15:31;23.90;1.00
29777;DHT22;16677;52.224;7.484;2022-07-23T15:17:58;23.90;1.00
29777;DHT22;16677;52.224;7.484;2022-07-23T15:20:25;23.90;1.00
29777;DHT22;16677;52.224;7.484;2022-07-23T15:23:05;24.10;1.00
29777;DHT22;16677;52.224;7.484;2022-07-23T15:25:52;24.40;1.00
29777;DHT22;16677;52.224;7.484;2022-07-23T15:28:20;24.80;1.00
29777;DHT22;16677;52.224;7.484;2022-07-23T15:30:48;25.40;1.00
29777;DHT22;16677;52.224;7.484;2022-07-23T15:33:16;23.90;1.00
29777;DHT22;16677;52.224;7.484;2022-07-23T15:35:48;24.10;1.00
29777;DHT22;16677;52.224;7.484;2022-07-23T15:38:15;24.00;1.00
29777;DHT22;16677;52.224;7.484;2022-07-23T15:40:49;23.60;1.00
29777;DHT22;16677;52.224;7.484;2022-07-23T15:43:16;23.60;1.00
29777;DHT22;16677;52.224;7.484;2022-07-23T15:45:43;23.80;1.00
29777;DHT22;16677;52.224;7.484;2022-07-23T15:48:12;23.50;1.00
29777;DHT22;16677;52.224;7.484;2022-07-23T15:50:39;23.30;1.00
29777;DHT22;16677;52.224;7.484;2022-07-23T15:53:11;23.70;1.00
29777;DHT22;16677;52.224;7.484;2022-07-23T15:55:41;23.50;1.00
29777;DHT22;16677;52.224;7.484;2022-07-23T15:58:13;23.30;1.00
29777;DHT22;16677;52.224;7.484;2022-07-23T16:00:40;23.70;1.00
29777;DHT22;16677;52.224;7.484;2022-07-23T16:03:12;24.50;1.00
29777;DHT22;16677;52.224;7.484;2022-07-23T16:05:41;24.90;1.00
29777;DHT22;16677;52.224;7.484;2022-07-23T16:08:08;25.60;1.00
29777;DHT22;16677;52.224;7.484;2022-07-23T16:10:35;25.20;1.00
29777;DHT22;16677;52.224;7.484;2022-07-23T16:13:02;25.20;1.00
29777;DHT22;16677;52.224;7.484;2022-07-23T16:15:30;25.20;1.00
29777;DHT22;16677;52.224;7.484;2022-07-23T16:17:57;25.10;1.00
29777;DHT22;16677;52.224;7.484;2022-07-23T16:20:25;24.60;1.00
29777;DHT22;16677;52.224;7.484;2022-07-23T16:22:51;24.80;1.00
29777;DHT22;16677;52.224;7.484;2022-07-23T16:25:18;24.90;1.00
29777;DHT22;16677;52.224;7.484;2022-07-23T16:27:45;24.90;1.00
29777;DHT22;16677;52.224;7.484;2022-07-23T16:30:13;25.40;1.00
29777;DHT22;16677;52.224;7.484;2022-07-23T16:32:41;25.00;1.00
29777;DHT22;16677;52.224;7.484;2022-07-23T16:35:09;24.70;1.00
29777;DHT22;16677;52.224;7.484;2022-07-23T16:37:40;25.30;1.00
29777;DHT22;16677;52.224;7.484;2022-07-23T16:40:09;25.20;1.00
29777;DHT22;16677;52.224;7.484;2022-07-23T16:42:37;25.20;1.00